sensor_id;sensor_type;location;lat;lon;timestamp;pressure;altitude;pressure_sealevel;temperature;humidity
61814;BME280;57055;-35.296;149.168;2023-07-20T00:00:21;95411.49;;;0.65;58.31
61814;BME280;57055;-35.296;149.168;2023-07-20T00:02:51;95412.47;;;0.77;58.37
61814;BME280;57055;-35.296;149.168;2023-07-20T00:05:20;95406.48;;;0.89;58.91
61814;BME280;57055;-35.296;149.168;2023-07-20T00:07:49;95408.31;;;0.92;59.27
61814;BME280;57055;-35.296;149.168;2023-07-20T00:10:18;95405.93;;;1.05;58.91
61814;BME280;57055;-35.296;149.168;2023-07-20T00:12:47;95401.56;;;1.00;58.70
61814;BME280;57055;-35.296;149.168;2023-07-20T00:15:16;95398.51;;;1.13;58.37
61814;BME280;57055;-35.296;149.168;2023-07-20T00:17:45;95384.64;;;1.18;58.11
61814;BME280;57055;-35.296;149.168;2023-07-20T00:20:14;95384.88;;;1.10;59.27
61814;BME280;57055;-35.296;149.168;2023-07-20T00:22:43;95384.95;;;1.27;59.79
61814;BME280;57055;-35.296;149.168;2023-07-20T00:25:12;95383.13;;;1.30;59.69
61814;BME280;57055;-35.296;149.168;2023-07-20T00:27:41;95374.74;;;1.30;59.85
61814;BME280;57055;-35.296;149.168;2023-07-20T00:30:11;95375.75;;;1.34;60.30
61814;BME280;57055;-35.296;149.168;2023-07-20T00:32:40;95368.11;;;1.67;59.94
61814;BME280;57055;-35.296;149.168;2023-07-20T00:35:09;95368.13;;;1.55;59.42
61814;BME280;57055;-35.296;149.168;2023-07-20T00:37:38;95366.02;;;1.79;59.87
61814;BME280;57055;-35.296;149.168;2023-07-20T00:40:08;95356.89;;;1.57;59.57
61814;BME280;57055;-35.296;149.168;2023-07-20T00:42:37;95350.48;;;1.92;60.32
61814;BME280;57055;-35.296;149.168;2023-07-20T00:45:07;95343.18;;;2.05;60.21
61814;BME280;57055;-35.296;149.168;2023-07-20T00:47:37;95334.56;;;1.94;60.02
61814;BME280;57055;-35.296;149.168;2023-07-20T00:50:07;95335.86;;;2.14;60.94
61814;BME280;57055;-35.296;149.168;2023-07-20T00:52:36;95337.88;;;2.28;60.50
61814;BME280;57055;-35.296;149.168;2023-07-20T00:55:07;95340.81;;;2.53;60.21
61814;BME280;57055;-35.296;149.168;2023-07-20T00:57:39;95325.71;;;2.36;59.55
61814;BME280;57055;-35.296;149.168;2023-07-20T01:00:08;95323.14;;;2.58;59.27
61814;BME280;57055;-35.296;149.168;2023-07-20T01:02:37;95322.93;;;2.73;59.12
61814;BME280;57055;-35.296;149.168;2023-07-20T01:05:07;95316.92;;;2.72;59.33
61814;BME280;57055;-35.296;149.168;2023-07-20T01:07:39;95318.90;;;2.77;59.11
61814;BME280;57055;-35.296;149.168;2023-07-20T01:10:14;95314.19;;;2.95;59.20
61814;BME280;57055;-35.296;149.168;2023-07-20T01:12:49;95300.64;;;2.99;59.11
61814;BME280;57055;-35.296;149.168;2023-07-20T01:15:20;95297.64;;;3.38;58.28
61814;BME280;57055;-35.296;149.168;2023-07-20T01:17:49;95294.44;;;3.59;57.72
61814;BME280;57055;-35.296;149.168;2023-07-20T01:20:20;95289.76;;;3.52;57.79
61814;BME280;57055;-35.296;149.168;2023-07-20T01:23:09;95277.25;;;3.86;57.64
61814;BME280;57055;-35.296;149.168;2023-07-20T01:26:00;95259.39;;;3.69;56.63
61814;BME280;57055;-35.296;149.168;2023-07-20T01:28:44;95246.00;;;4.02;55.47
61814;BME280;57055;-35.296;149.168;2023-07-20T01:31:21;95230.04;;;4.15;55.34
61814;BME280;57055;-35.296;149.168;2023-07-20T01:33:56;95229.55;;;4.16;55.14
61814;BME280;57055;-35.296;149.168;2023-07-20T01:36:28;95210.27;;;4.25;53.88
61814;BME280;57055;-35.296;149.168;2023-07-20T01:38:58;95206.63;;;4.40;52.91
61814;BME280;57055;-35.296;149.168;2023-07-20T01:41:27;95210.90;;;4.47;51.96
61814;BME280;57055;-35.296;149.168;2023-07-20T01:43:59;95209.07;;;4.68;51.66
61814;BME280;57055;-35.296;149.168;2023-07-20T01:46:27;95199.42;;;4.75;50.70
61814;BME280;57055;-35.296;149.168;2023-07-20T01:48:56;95203.38;;;4.43;50.49
61814;BME280;57055;-35.296;149.168;2023-07-20T01:51:25;95199.65;;;4.62;50.42
61814;BME280;57055;-35.296;149.168;2023-07-20T01:53:54;95195.82;;;4.80;49.86
61814;BME280;57055;-35.296;149.168;2023-07-20T01:56:23;95201.03;;;4.57;49.58
61814;BME280;57055;-35.296;149.168;2023-07-20T01:58:52;95196.58;;;4.84;48.85
61814;BME280;57055;-35.296;149.168;2023-07-20T02:01:21;95187.87;;;5.09;48.15
61814;BME280;57055;-35.296;149.168;2023-07-20T02:03:50;95182.10;;;5.19;47.46
61814;BME280;57055;-35.296;149.168;2023-07-20T02:06:19;95185.13;;;5.28;47.11
61814;BME280;57055;-35.296;149.168;2023-07-20T02:08:47;95192.78;;;5.42;47.27
61814;BME280;57055;-35.296;149.168;2023-07-20T02:11:16;95184.64;;;5.57;47.24
61814;BME280;57055;-35.296;149.168;2023-07-20T02:13:45;95163.56;;;5.60;46.83
61814;BME280;57055;-35.296;149.168;2023-07-20T02:16:14;95163.27;;;5.45;46.86
61814;BME280;57055;-35.296;149.168;2023-07-20T02:18:43;95152.85;;;5.77;46.11
61814;BME280;57055;-35.296;149.168;2023-07-20T02:21:12;95139.94;;;6.15;46.40
61814;BME280;57055;-35.296;149.168;2023-07-20T02:23:41;95138.76;;;5.88;46.47
61814;BME280;57055;-35.296;149.168;2023-07-20T02:26:09;95146.26;;;6.28;46.20
61814;BME280;57055;-35.296;149.168;2023-07-20T02:28:38;95158.04;;;5.91;46.40
61814;BME280;57055;-35.296;149.168;2023-07-20T02:31:07;95169.16;;;5.95;46.56
61814;BME280;57055;-35.296;149.168;2023-07-20T02:33:37;95168.30;;;6.10;46.09
61814;BME280;57055;-35.296;149.168;2023-07-20T02:36:06;95164.32;;;6.00;46.08
61814;BME280;57055;-35.296;149.168;2023-07-20T02:38:34;95139.10;;;5.90;46.35
61814;BME280;57055;-35.296;149.168;2023-07-20T02:41:03;95131.29;;;5.83;46.40
61814;BME280;57055;-35.296;149.168;2023-07-20T02:43:32;95125.89;;;5.82;46.05
61814;BME280;57055;-35.296;149.168;2023-07-20T02:46:01;95140.16;;;5.59;46.20
61814;BME280;57055;-35.296;149.168;2023-07-20T02:48:30;95131.56;;;5.73;46.01
61814;BME280;57055;-35.296;149.168;2023-07-20T02:50:59;95131.09;;;6.01;45.87
61814;BME280;57055;-35.296;149.168;2023-07-20T02:53:28;95137.16;;;6.07;46.05
61814;BME280;57055;-35.296;149.168;2023-07-20T02:55:56;95121.52;;;5.87;45.94
61814;BME280;57055;-35.296;149.168;2023-07-20T02:58:25;95115.45;;;6.39;45.81
61814;BME280;57055;-35.296;149.168;2023-07-20T03:00:54;95106.04;;;6.08;45.59
61814;BME280;57055;-35.296;149.168;2023-07-20T03:03:23;95108.17;;;6.38;45.47
61814;BME280;57055;-35.296;149.168;2023-07-20T03:05:52;95095.40;;;6.65;45.27
61814;BME280;57055;-35.296;149.168;2023-07-20T03:08:21;95092.21;;;6.75;45.16
61814;BME280;57055;-35.296;149.168;2023-07-20T03:10:50;95076.23;;;6.91;44.98
61814;BME280;57055;-35.296;149.168;2023-07-20T03:13:19;95079.81;;;6.81;44.99
61814;BME280;57055;-35.296;149.168;2023-07-20T03:15:48;95079.48;;;6.99;45.11
61814;BME280;57055;-35.296;149.168;2023-07-20T03:19:05;95071.78;;;6.93;45.23
61814;BME280;57055;-35.296;149.168;2023-07-20T03:21:34;95073.15;;;6.86;45.24
61814;BME280;57055;-35.296;149.168;2023-07-20T03:24:03;95061.99;;;7.12;45.06
61814;BME280;57055;-35.296;149.168;2023-07-20T03:26:31;95067.91;;;7.24;44.91
61814;BME280;57055;-35.296;149.168;2023-07-20T03:29:00;95054.11;;;7.43;44.69
61814;BME280;57055;-35.296;149.168;2023-07-20T03:31:29;95047.19;;;7.22;44.51
61814;BME280;57055;-35.296;149.168;2023-07-20T03:33:58;95045.59;;;7.41;44.52
61814;BME280;57055;-35.296;149.168;2023-07-20T03:36:26;95045.15;;;7.15;44.36
61814;BME280;57055;-35.296;149.168;2023-07-20T03:38:55;95041.40;;;7.26;44.41
61814;BME280;57055;-35.296;149.168;2023-07-20T03:41:24;95038.59;;;7.59;44.71
61814;BME280;57055;-35.296;149.168;2023-07-20T03:43:53;95032.82;;;7.32;44.68
61814;BME280;57055;-35.296;149.168;2023-07-20T03:46:22;95026.59;;;7.37;44.96
61814;BME280;57055;-35.296;149.168;2023-07-20T03:48:51;95034.28;;;7.60;44.68
61814;BME280;57055;-35.296;149.168;2023-07-20T03:51:19;95025.28;;;7.54;44.46
61814;BME280;57055;-35.296;149.168;2023-07-20T03:53:48;95014.89;;;7.41;44.32
61814;BME280;57055;-35.296;149.168;2023-07-20T03:56:17;95010.68;;;7.49;43.80
61814;BME280;57055;-35.296;149.168;2023-07-20T03:58:46;94996.89;;;7.21;43.96
61814;BME280;57055;-35.296;149.168;2023-07-20T04:01:15;94994.29;;;7.54;44.07
61814;BME280;57055;-35.296;149.168;2023-07-20T04:03:43;94988.59;;;7.40;43.87
61814;BME280;57055;-35.296;149.168;2023-07-20T04:06:13;94978.69;;;7.33;43.80
61814;BME280;57055;-35.296;149.168;2023-07-20T04:08:42;94976.59;;;7.49;44.15
61814;BME280;57055;-35.296;149.168;2023-07-20T04:11:11;94970.43;;;7.21;44.42
61814;BME280;57055;-35.296;149.168;2023-07-20T04:13:39;94965.69;;;7.37;44.32
61814;BME280;57055;-35.296;149.168;2023-07-20T04:16:08;94955.27;;;7.45;44.34
61814;BME280;57055;-35.296;149.168;2023-07-20T04:18:37;94956.73;;;7.38;43.93
61814;BME280;57055;-35.296;149.168;2023-07-20T04:21:07;94953.53;;;7.40;43.84
61814;BME280;57055;-35.296;149.168;2023-07-20T04:23:36;94954.45;;;7.59;43.58
61814;BME280;57055;-35.296;149.168;2023-07-20T04:26:05;94951.42;;;7.12;43.18
61814;BME280;57055;-35.296;149.168;2023-07-20T04:28:34;94939.23;;;7.36;43.19
61814;BME280;57055;-35.296;149.168;2023-07-20T04:31:11;94933.48;;;7.01;43.33
61814;BME280;57055;-35.296;149.168;2023-07-20T04:33:40;94939.29;;;7.31;42.95
61814;BME280;57055;-35.296;149.168;2023-07-20T04:36:09;94934.62;;;7.43;42.77
61814;BME280;57055;-35.296;149.168;2023-07-20T04:38:38;94925.09;;;7.26;42.94
61814;BME280;57055;-35.296;149.168;2023-07-20T04:41:07;94930.11;;;7.25;42.78
61814;BME280;57055;-35.296;149.168;2023-07-20T04:43:36;94919.03;;;7.03;42.96
61814;BME280;57055;-35.296;149.168;2023-07-20T04:46:05;94909.09;;;7.02;42.16
61814;BME280;57055;-35.296;149.168;2023-07-20T04:48:34;94900.66;;;7.49;42.16
61814;BME280;57055;-35.296;149.168;2023-07-20T04:51:03;94897.40;;;7.05;41.89
61814;BME280;57055;-35.296;149.168;2023-07-20T04:53:32;94886.99;;;7.11;41.84
61814;BME280;57055;-35.296;149.168;2023-07-20T04:56:01;94880.97;;;7.39;41.70
61814;BME280;57055;-35.296;149.168;2023-07-20T04:58:30;94882.61;;;7.56;42.05
61814;BME280;57055;-35.296;149.168;2023-07-20T05:00:59;94878.38;;;7.11;41.89
61814;BME280;57055;-35.296;149.168;2023-07-20T05:03:27;94876.09;;;6.91;41.76
61814;BME280;57055;-35.296;149.168;2023-07-20T05:05:56;94873.77;;;6.93;41.88
61814;BME280;57055;-35.296;149.168;2023-07-20T05:08:26;94876.12;;;6.94;41.82
61814;BME280;57055;-35.296;149.168;2023-07-20T05:10:55;94864.56;;;7.47;41.88
61814;BME280;57055;-35.296;149.168;2023-07-20T05:13:24;94865.32;;;7.22;41.35
61814;BME280;57055;-35.296;149.168;2023-07-20T05:15:53;94862.14;;;7.25;41.18
61814;BME280;57055;-35.296;149.168;2023-07-20T05:18:22;94864.58;;;7.27;41.17
61814;BME280;57055;-35.296;149.168;2023-07-20T05:20:52;94868.53;;;7.20;40.84
61814;BME280;57055;-35.296;149.168;2023-07-20T05:23:20;94869.03;;;7.14;40.58
61814;BME280;57055;-35.296;149.168;2023-07-20T05:25:55;94870.30;;;7.35;39.30
61814;BME280;57055;-35.296;149.168;2023-07-20T05:28:24;94870.40;;;7.27;39.35
61814;BME280;57055;-35.296;149.168;2023-07-20T05:30:54;94867.80;;;6.92;39.61
61814;BME280;57055;-35.296;149.168;2023-07-20T05:33:23;94867.32;;;6.60;39.38
61814;BME280;57055;-35.296;149.168;2023-07-20T05:35:52;94867.68;;;7.08;39.42
61814;BME280;57055;-35.296;149.168;2023-07-20T05:38:21;94866.86;;;6.99;39.60
61814;BME280;57055;-35.296;149.168;2023-07-20T05:40:50;94877.02;;;6.89;39.60
61814;BME280;57055;-35.296;149.168;2023-07-20T05:43:19;94877.23;;;6.94;39.28
61814;BME280;57055;-35.296;149.168;2023-07-20T05:45:48;94870.54;;;6.94;38.75
61814;BME280;57055;-35.296;149.168;2023-07-20T05:48:23;94860.04;;;6.78;38.28
61814;BME280;57055;-35.296;149.168;2023-07-20T05:50:53;94856.46;;;6.65;38.07
61814;BME280;57055;-35.296;149.168;2023-07-20T05:53:21;94855.61;;;6.57;38.24
61814;BME280;57055;-35.296;149.168;2023-07-20T05:55:53;94858.25;;;6.48;37.99
61814;BME280;57055;-35.296;149.168;2023-07-20T05:58:23;94858.01;;;6.43;38.52
61814;BME280;57055;-35.296;149.168;2023-07-20T06:00:54;94859.99;;;6.64;38.82
61814;BME280;57055;-35.296;149.168;2023-07-20T06:03:24;94867.05;;;6.46;39.62
61814;BME280;57055;-35.296;149.168;2023-07-20T06:05:57;94872.91;;;6.37;40.05
61814;BME280;57055;-35.296;149.168;2023-07-20T06:08:26;94869.24;;;6.28;40.15
61814;BME280;57055;-35.296;149.168;2023-07-20T06:10:55;94873.92;;;6.28;40.35
61814;BME280;57055;-35.296;149.168;2023-07-20T06:13:24;94870.88;;;6.27;40.81
61814;BME280;57055;-35.296;149.168;2023-07-20T06:15:53;94854.85;;;6.23;41.47
61814;BME280;57055;-35.296;149.168;2023-07-20T06:18:23;94866.91;;;5.96;41.95
61814;BME280;57055;-35.296;149.168;2023-07-20T06:20:52;94864.04;;;6.16;42.76
61814;BME280;57055;-35.296;149.168;2023-07-20T06:23:22;94863.38;;;6.11;42.94
61814;BME280;57055;-35.296;149.168;2023-07-20T06:25:51;94856.32;;;5.85;42.79
61814;BME280;57055;-35.296;149.168;2023-07-20T06:28:19;94853.25;;;6.04;42.88
61814;BME280;57055;-35.296;149.168;2023-07-20T06:30:48;94857.75;;;5.98;43.20
61814;BME280;57055;-35.296;149.168;2023-07-20T06:33:17;94854.34;;;5.88;43.60
61814;BME280;57055;-35.296;149.168;2023-07-20T06:35:46;94855.22;;;6.12;44.09
61814;BME280;57055;-35.296;149.168;2023-07-20T06:38:15;94859.00;;;6.09;44.60
61814;BME280;57055;-35.296;149.168;2023-07-20T06:40:45;94849.73;;;5.78;45.32
61814;BME280;57055;-35.296;149.168;2023-07-20T06:43:14;94860.60;;;5.70;46.18
61814;BME280;57055;-35.296;149.168;2023-07-20T06:45:43;94865.42;;;5.87;47.00
61814;BME280;57055;-35.296;149.168;2023-07-20T06:48:32;94861.43;;;5.99;47.53
61814;BME280;57055;-35.296;149.168;2023-07-20T06:51:01;94865.53;;;5.69;47.96
61814;BME280;57055;-35.296;149.168;2023-07-20T06:53:30;94869.58;;;5.76;48.36
61814;BME280;57055;-35.296;149.168;2023-07-20T06:55:59;94868.22;;;5.72;48.24
61814;BME280;57055;-35.296;149.168;2023-07-20T06:58:28;94872.43;;;5.69;48.39
61814;BME280;57055;-35.296;149.168;2023-07-20T07:00:58;94866.53;;;5.41;48.32
61814;BME280;57055;-35.296;149.168;2023-07-20T07:03:27;94868.44;;;5.35;48.45
61814;BME280;57055;-35.296;149.168;2023-07-20T07:05:57;94859.80;;;5.54;48.68
61814;BME280;57055;-35.296;149.168;2023-07-20T07:08:26;94858.24;;;5.54;48.60
61814;BME280;57055;-35.296;149.168;2023-07-20T07:10:55;94867.76;;;5.52;48.59
61814;BME280;57055;-35.296;149.168;2023-07-20T07:13:29;94876.95;;;5.37;48.34
61814;BME280;57055;-35.296;149.168;2023-07-20T07:15:58;94884.26;;;5.23;48.65
61814;BME280;57055;-35.296;149.168;2023-07-20T07:18:27;94885.27;;;5.16;48.94
61814;BME280;57055;-35.296;149.168;2023-07-20T07:20:56;94887.74;;;4.99;49.35
61814;BME280;57055;-35.296;149.168;2023-07-20T07:23:25;94896.31;;;5.04;49.22
61814;BME280;57055;-35.296;149.168;2023-07-20T07:25:54;94896.83;;;5.05;49.34
61814;BME280;57055;-35.296;149.168;2023-07-20T07:28:23;94899.25;;;4.99;49.30
61814;BME280;57055;-35.296;149.168;2023-07-20T07:30:51;94901.01;;;4.93;49.30
61814;BME280;57055;-35.296;149.168;2023-07-20T07:33:20;94894.09;;;4.94;49.22
61814;BME280;57055;-35.296;149.168;2023-07-20T07:35:50;94894.95;;;5.15;49.22
61814;BME280;57055;-35.296;149.168;2023-07-20T07:38:19;94899.29;;;5.04;49.38
61814;BME280;57055;-35.296;149.168;2023-07-20T07:40:48;94891.46;;;4.91;49.04
61814;BME280;57055;-35.296;149.168;2023-07-20T07:43:17;94879.78;;;5.03;49.27
61814;BME280;57055;-35.296;149.168;2023-07-20T07:45:46;94886.54;;;4.92;49.10
61814;BME280;57055;-35.296;149.168;2023-07-20T07:49:50;94889.65;;;5.17;48.87
61814;BME280;57055;-35.296;149.168;2023-07-20T07:52:19;94897.40;;;4.93;49.12
61814;BME280;57055;-35.296;149.168;2023-07-20T07:54:48;94898.32;;;4.62;49.02
61814;BME280;57055;-35.296;149.168;2023-07-20T07:57:17;94892.92;;;5.12;48.93
61814;BME280;57055;-35.296;149.168;2023-07-20T07:59:46;94893.49;;;5.13;48.99
61814;BME280;57055;-35.296;149.168;2023-07-20T08:02:15;94898.39;;;4.77;49.04
61814;BME280;57055;-35.296;149.168;2023-07-20T08:04:44;94903.83;;;4.98;49.14
61814;BME280;57055;-35.296;149.168;2023-07-20T08:07:13;94904.55;;;5.00;48.99
61814;BME280;57055;-35.296;149.168;2023-07-20T08:09:42;94902.50;;;4.93;49.10
61814;BME280;57055;-35.296;149.168;2023-07-20T08:12:11;94903.48;;;4.94;48.92
61814;BME280;57055;-35.296;149.168;2023-07-20T08:14:40;94907.06;;;4.92;48.91
61814;BME280;57055;-35.296;149.168;2023-07-20T08:17:09;94910.21;;;4.76;48.96
61814;BME280;57055;-35.296;149.168;2023-07-20T08:19:38;94912.79;;;5.08;48.86
61814;BME280;57055;-35.296;149.168;2023-07-20T08:22:07;94912.66;;;4.84;48.93
61814;BME280;57055;-35.296;149.168;2023-07-20T08:24:38;94911.25;;;4.78;49.25
61814;BME280;57055;-35.296;149.168;2023-07-20T08:27:07;94909.05;;;5.03;49.43
61814;BME280;57055;-35.296;149.168;2023-07-20T08:29:36;94918.54;;;4.69;49.46
61814;BME280;57055;-35.296;149.168;2023-07-20T08:32:05;94916.19;;;5.15;49.72
61814;BME280;57055;-35.296;149.168;2023-07-20T08:34:34;94918.21;;;4.97;50.26
61814;BME280;57055;-35.296;149.168;2023-07-20T08:37:03;94919.17;;;4.61;50.52
61814;BME280;57055;-35.296;149.168;2023-07-20T08:39:32;94928.32;;;4.67;50.58
61814;BME280;57055;-35.296;149.168;2023-07-20T08:42:02;94927.67;;;4.93;50.89
61814;BME280;57055;-35.296;149.168;2023-07-20T08:44:33;94925.73;;;4.83;51.15
61814;BME280;57055;-35.296;149.168;2023-07-20T08:47:03;94918.32;;;4.84;51.45
61814;BME280;57055;-35.296;149.168;2023-07-20T08:49:34;94911.67;;;4.83;51.76
61814;BME280;57055;-35.296;149.168;2023-07-20T08:52:04;94914.13;;;4.83;51.95
61814;BME280;57055;-35.296;149.168;2023-07-20T08:54:34;94911.74;;;4.82;52.17
61814;BME280;57055;-35.296;149.168;2023-07-20T08:57:04;94928.52;;;4.78;52.39
61814;BME280;57055;-35.296;149.168;2023-07-20T08:59:35;94938.13;;;4.72;52.55
61814;BME280;57055;-35.296;149.168;2023-07-20T09:02:05;94943.47;;;4.53;52.74
61814;BME280;57055;-35.296;149.168;2023-07-20T09:04:38;94952.27;;;4.77;52.90
61814;BME280;57055;-35.296;149.168;2023-07-20T09:07:07;94955.42;;;4.75;53.19
61814;BME280;57055;-35.296;149.168;2023-07-20T09:09:41;94957.53;;;4.35;53.47
61814;BME280;57055;-35.296;149.168;2023-07-20T09:12:14;94961.88;;;4.65;53.49
61814;BME280;57055;-35.296;149.168;2023-07-20T09:14:44;94949.96;;;4.61;53.77
61814;BME280;57055;-35.296;149.168;2023-07-20T09:17:14;94952.25;;;4.57;53.84
61814;BME280;57055;-35.296;149.168;2023-07-20T09:19:47;94956.17;;;4.09;53.90
61814;BME280;57055;-35.296;149.168;2023-07-20T09:22:16;94963.68;;;4.61;54.05
61814;BME280;57055;-35.296;149.168;2023-07-20T09:24:45;94970.02;;;4.61;53.90
61814;BME280;57055;-35.296;149.168;2023-07-20T09:27:14;94970.21;;;4.56;54.08
61814;BME280;57055;-35.296;149.168;2023-07-20T09:29:50;94974.04;;;4.21;54.32
61814;BME280;57055;-35.296;149.168;2023-07-20T09:32:21;94970.60;;;4.20;54.33
61814;BME280;57055;-35.296;149.168;2023-07-20T09:34:51;94978.12;;;4.44;54.42
61814;BME280;57055;-35.296;149.168;2023-07-20T09:37:22;94975.85;;;4.48;54.49
61814;BME280;57055;-35.296;149.168;2023-07-20T09:39:53;94969.93;;;4.41;54.64
61814;BME280;57055;-35.296;149.168;2023-07-20T09:42:23;94978.88;;;4.45;54.49
61814;BME280;57055;-35.296;149.168;2023-07-20T09:44:51;94984.27;;;4.71;54.45
61814;BME280;57055;-35.296;149.168;2023-07-20T09:47:24;94986.41;;;4.42;54.66
61814;BME280;57055;-35.296;149.168;2023-07-20T09:49:59;94989.06;;;4.33;54.85
61814;BME280;57055;-35.296;149.168;2023-07-20T09:52:28;94994.14;;;4.41;54.75
61814;BME280;57055;-35.296;149.168;2023-07-20T09:54:58;94996.59;;;4.55;55.04
61814;BME280;57055;-35.296;149.168;2023-07-20T09:57:27;94993.28;;;4.37;55.08
61814;BME280;57055;-35.296;149.168;2023-07-20T09:59:57;94985.46;;;4.38;55.08
61814;BME280;57055;-35.296;149.168;2023-07-20T10:02:32;94979.28;;;4.39;55.25
61814;BME280;57055;-35.296;149.168;2023-07-20T10:05:04;94982.93;;;4.44;55.25
61814;BME280;57055;-35.296;149.168;2023-07-20T10:07:34;94983.36;;;4.12;55.23
61814;BME280;57055;-35.296;149.168;2023-07-20T10:10:06;94997.46;;;4.35;55.38
61814;BME280;57055;-35.296;149.168;2023-07-20T10:12:36;95002.75;;;4.48;55.13
61814;BME280;57055;-35.296;149.168;2023-07-20T10:15:11;94994.43;;;4.47;55.23
61814;BME280;57055;-35.296;149.168;2023-07-20T10:17:55;95000.00;;;4.18;55.34
61814;BME280;57055;-35.296;149.168;2023-07-20T10:20:27;94993.50;;;4.45;55.45
61814;BME280;57055;-35.296;149.168;2023-07-20T10:22:58;94995.80;;;4.37;55.65
61814;BME280;57055;-35.296;149.168;2023-07-20T10:25:28;94993.28;;;4.36;55.70
61814;BME280;57055;-35.296;149.168;2023-07-20T10:27:58;94994.11;;;4.38;55.70
61814;BME280;57055;-35.296;149.168;2023-07-20T10:30:27;95008.93;;;4.34;55.91
61814;BME280;57055;-35.296;149.168;2023-07-20T10:32:56;95011.04;;;4.47;55.64
61814;BME280;57055;-35.296;149.168;2023-07-20T10:35:25;94999.09;;;4.47;55.78
61814;BME280;57055;-35.296;149.168;2023-07-20T10:37:59;95003.07;;;4.40;55.93
61814;BME280;57055;-35.296;149.168;2023-07-20T10:40:31;95004.02;;;4.67;55.99
61814;BME280;57055;-35.296;149.168;2023-07-20T10:43:03;95003.87;;;4.68;56.05
61814;BME280;57055;-35.296;149.168;2023-07-20T10:45:41;95000.51;;;4.46;56.08
61814;BME280;57055;-35.296;149.168;2023-07-20T10:48:20;94994.51;;;4.53;56.00
61814;BME280;57055;-35.296;149.168;2023-07-20T10:51:11;95003.58;;;4.56;55.98
61814;BME280;57055;-35.296;149.168;2023-07-20T10:53:41;95005.10;;;4.60;55.87
61814;BME280;57055;-35.296;149.168;2023-07-20T10:56:12;95005.70;;;4.71;55.57
61814;BME280;57055;-35.296;149.168;2023-07-20T10:58:42;95000.09;;;4.66;55.70
61814;BME280;57055;-35.296;149.168;2023-07-20T11:01:15;95009.35;;;4.73;55.57
61814;BME280;57055;-35.296;149.168;2023-07-20T11:03:49;95010.18;;;4.74;55.55
61814;BME280;57055;-35.296;149.168;2023-07-20T11:06:36;95009.31;;;4.82;55.42
61814;BME280;57055;-35.296;149.168;2023-07-20T11:09:08;95005.08;;;4.75;55.64
61814;BME280;57055;-35.296;149.168;2023-07-20T11:11:38;95008.38;;;4.71;55.75
61814;BME280;57055;-35.296;149.168;2023-07-20T11:14:09;95007.88;;;4.41;55.75
61814;BME280;57055;-35.296;149.168;2023-07-20T11:16:41;95017.50;;;4.66;55.87
61814;BME280;57055;-35.296;149.168;2023-07-20T11:19:17;95015.74;;;4.35;55.93
61814;BME280;57055;-35.296;149.168;2023-07-20T11:21:51;95016.03;;;4.34;56.04
61814;BME280;57055;-35.296;149.168;2023-07-20T11:24:20;95004.41;;;4.57;56.11
61814;BME280;57055;-35.296;149.168;2023-07-20T11:26:51;95007.38;;;4.53;56.30
61814;BME280;57055;-35.296;149.168;2023-07-20T11:29:21;95014.22;;;4.63;56.01
61814;BME280;57055;-35.296;149.168;2023-07-20T11:31:51;95015.32;;;4.65;55.97
61814;BME280;57055;-35.296;149.168;2023-07-20T11:34:21;95016.71;;;4.33;56.15
61814;BME280;57055;-35.296;149.168;2023-07-20T11:36:51;95015.39;;;4.81;56.22
61814;BME280;57055;-35.296;149.168;2023-07-20T11:39:21;95017.87;;;4.57;56.35
61814;BME280;57055;-35.296;149.168;2023-07-20T11:41:52;95014.98;;;4.60;56.33
61814;BME280;57055;-35.296;149.168;2023-07-20T11:44:23;95016.15;;;4.60;56.38
61814;BME280;57055;-35.296;149.168;2023-07-20T11:46:59;95016.89;;;4.65;56.20
61814;BME280;57055;-35.296;149.168;2023-07-20T11:49:28;95014.77;;;4.66;56.22
61814;BME280;57055;-35.296;149.168;2023-07-20T11:51:57;95010.87;;;4.72;56.04
61814;BME280;57055;-35.296;149.168;2023-07-20T11:54:26;95015.94;;;4.90;56.17
61814;BME280;57055;-35.296;149.168;2023-07-20T11:56:56;95020.89;;;4.70;56.09
61814;BME280;57055;-35.296;149.168;2023-07-20T11:59:25;95026.83;;;4.72;56.05
61814;BME280;57055;-35.296;149.168;2023-07-20T12:01:54;95021.97;;;4.76;56.02
61814;BME280;57055;-35.296;149.168;2023-07-20T12:04:24;95028.74;;;4.47;56.03
61814;BME280;57055;-35.296;149.168;2023-07-20T12:06:54;95020.81;;;4.78;55.90
61814;BME280;57055;-35.296;149.168;2023-07-20T12:09:24;95025.54;;;4.81;55.92
61814;BME280;57055;-35.296;149.168;2023-07-20T12:11:53;95022.66;;;4.78;55.98
61814;BME280;57055;-35.296;149.168;2023-07-20T12:14:25;95022.89;;;4.84;55.92
61814;BME280;57055;-35.296;149.168;2023-07-20T12:16:54;95028.05;;;4.87;55.79
61814;BME280;57055;-35.296;149.168;2023-07-20T12:19:26;95028.99;;;4.91;55.71
61814;BME280;57055;-35.296;149.168;2023-07-20T12:21:58;95030.62;;;4.89;55.83
61814;BME280;57055;-35.296;149.168;2023-07-20T12:24:27;95028.92;;;4.94;55.75
61814;BME280;57055;-35.296;149.168;2023-07-20T12:26:58;95028.93;;;5.00;55.54
61814;BME280;57055;-35.296;149.168;2023-07-20T12:29:27;95029.24;;;4.77;55.53
61814;BME280;57055;-35.296;149.168;2023-07-20T12:31:56;95030.45;;;5.06;55.46
61814;BME280;57055;-35.296;149.168;2023-07-20T12:34:24;95031.22;;;4.83;55.42
61814;BME280;57055;-35.296;149.168;2023-07-20T12:36:53;95030.02;;;4.80;55.61
61814;BME280;57055;-35.296;149.168;2023-07-20T12:39:23;95025.90;;;4.82;55.46
61814;BME280;57055;-35.296;149.168;2023-07-20T12:41:52;95024.05;;;5.08;55.48
61814;BME280;57055;-35.296;149.168;2023-07-20T12:44:21;95023.81;;;5.05;55.61
61814;BME280;57055;-35.296;149.168;2023-07-20T12:46:50;95020.86;;;4.55;55.63
61814;BME280;57055;-35.296;149.168;2023-07-20T12:49:18;95022.77;;;5.01;55.78
61814;BME280;57055;-35.296;149.168;2023-07-20T12:51:49;95017.55;;;5.02;55.75
61814;BME280;57055;-35.296;149.168;2023-07-20T12:54:17;95019.55;;;5.02;55.69
61814;BME280;57055;-35.296;149.168;2023-07-20T12:56:46;95020.36;;;4.81;55.69